createdAt,value
2017-11-25T00:01:51.410Z,36.97
2017-11-25T00:04:23.017Z,44.67
2017-11-25T00:06:52.453Z,44.17
2017-11-25T00:09:21.967Z,39.63
2017-11-25T00:11:56.105Z,52.40
2017-11-25T00:14:32.897Z,37.57
2017-11-25T00:17:12.384Z,40.00
2017-11-25T00:19:52.094Z,54.03
2017-11-25T00:22:24.302Z,38.47
2017-11-25T00:24:55.826Z,54.00
2017-11-25T00:27:28.189Z,39.13
2017-11-25T00:29:59.473Z,33.00
2017-11-25T00:32:31.146Z,33.23
2017-11-25T00:35:12.179Z,39.37
2017-11-25T00:37:44.376Z,39.67
2017-11-25T00:40:32.292Z,38.53
2017-11-25T00:43:09.826Z,36.20
2017-11-25T00:45:46.198Z,44.37
2017-11-25T00:48:17.450Z,42.27
2017-11-25T00:50:47.727Z,38.73
2017-11-25T00:53:17.370Z,39.50
2017-11-25T00:55:48.990Z,38.67
2017-11-25T00:58:20.855Z,34.70
2017-11-25T01:00:52.444Z,35.43
2017-11-25T01:03:24.827Z,35.30
2017-11-25T01:05:56.028Z,35.30
2017-11-25T01:08:33.372Z,43.07
2017-11-25T01:11:09.559Z,45.00
2017-11-25T01:13:41.032Z,54.17
2017-11-25T01:16:11.029Z,44.53
2017-11-25T01:18:41.369Z,58.63
2017-11-25T01:21:10.590Z,51.90
2017-11-25T01:23:40.285Z,37.80
2017-11-25T01:26:09.501Z,35.90
2017-11-25T01:28:41.457Z,43.40
2017-11-25T01:31:12.250Z,38.37
2017-11-25T01:33:48.379Z,75.07
2017-11-25T01:36:20.248Z,68.50
2017-11-25T01:38:53.445Z,77.60
2017-11-25T01:41:53.603Z,84.53
2017-11-25T01:44:27.211Z,43.50
2017-11-25T01:47:00.055Z,38.23
2017-11-25T01:49:30.412Z,45.27
2017-11-25T01:51:59.690Z,46.63
2017-11-25T01:54:28.766Z,60.13
2017-11-25T01:56:57.961Z,40.03
2017-11-25T01:59:28.935Z,61.50
2017-11-25T02:02:00.020Z,82.90
2017-11-25T02:04:31.238Z,55.10
2017-11-25T02:07:01.145Z,52.00
2017-11-25T02:09:32.880Z,87.73
2017-11-25T02:12:10.803Z,45.33
2017-11-25T02:14:47.118Z,51.37
2017-11-25T02:17:24.428Z,35.00
2017-11-25T02:19:55.426Z,39.33
2017-11-25T02:22:27.014Z,44.73
2017-11-25T02:24:59.852Z,34.17
2017-11-25T02:27:30.675Z,41.40
2017-11-25T02:30:05.770Z,27.80
2017-11-25T02:32:36.525Z,21.40
2017-11-25T02:35:06.265Z,19.53
2017-11-25T02:37:38.027Z,26.13
2017-11-25T02:40:13.758Z,20.37
2017-11-25T02:42:45.117Z,23.60
2017-11-25T02:45:19.293Z,24.23
2017-11-25T02:47:50.449Z,23.77
2017-11-25T02:50:20.529Z,28.60
2017-11-25T02:52:49.867Z,12.17
2017-11-25T02:55:19.159Z,12.63
2017-11-25T02:57:48.640Z,13.00
2017-11-25T03:00:19.714Z,17.67
2017-11-25T03:02:50.353Z,13.50
2017-11-25T03:05:19.835Z,20.63
2017-11-25T03:07:49.493Z,18.27
2017-11-25T03:10:19.385Z,19.77
2017-11-25T03:12:49.307Z,11.53
2017-11-25T03:15:18.327Z,14.70
2017-11-25T03:17:48.173Z,8.60
2017-11-25T03:20:21.251Z,11.30
2017-11-25T03:23:04.706Z,14.70
2017-11-25T03:25:34.658Z,9.20
2017-11-25T03:28:04.988Z,9.30
2017-11-25T03:30:35.112Z,9.50
2017-11-25T03:33:09.155Z,9.40
2017-11-25T03:35:42.648Z,9.80
2017-11-25T03:38:12.558Z,13.00
2017-11-25T03:40:41.906Z,10.97
2017-11-25T03:43:11.052Z,17.10
2017-11-25T03:45:40.930Z,9.17
2017-11-25T03:48:10.366Z,10.10
2017-11-25T03:50:39.960Z,9.07
2017-11-25T03:53:09.462Z,7.80
2017-11-25T03:55:40.195Z,8.40
2017-11-25T03:58:10.896Z,7.00
2017-11-25T04:03:46.880Z,13.90
2017-11-25T04:06:18.757Z,7.53
2017-11-25T04:08:48.783Z,8.00
2017-11-25T04:11:18.654Z,8.60
2017-11-25T04:13:49.319Z,12.53
2017-11-25T04:16:20.374Z,7.93
2017-11-25T04:18:50.530Z,6.27
2017-11-25T04:21:20.023Z,5.70
2017-11-25T04:23:53.753Z,7.83
2017-11-25T04:26:22.931Z,26.80
2017-11-25T04:28:52.127Z,6.90
2017-11-25T04:31:23.327Z,7.40
2017-11-25T04:33:52.602Z,8.00
2017-11-25T04:36:22.511Z,7.10
2017-11-25T04:38:51.852Z,7.30
2017-11-25T04:41:22.341Z,8.80
2017-11-25T04:43:51.862Z,5.70
2017-11-25T04:46:21.155Z,9.00
2017-11-25T04:48:50.608Z,7.13
2017-11-25T04:51:19.811Z,8.10
2017-11-25T04:53:51.162Z,9.50
2017-11-25T04:56:20.574Z,9.10
2017-11-25T04:58:50.260Z,9.30
2017-11-25T05:01:20.299Z,8.23
2017-11-25T05:03:49.444Z,9.33
2017-11-25T05:06:19.102Z,9.10
2017-11-25T05:08:48.051Z,10.27
2017-11-25T05:11:17.278Z,10.17
2017-11-25T05:13:47.210Z,17.10
2017-11-25T05:16:17.454Z,11.43
2017-11-25T05:18:47.219Z,11.10
2017-11-25T05:21:17.508Z,10.33
2017-11-25T05:23:46.961Z,12.70
2017-11-25T05:26:16.243Z,12.80
2017-11-25T05:28:46.017Z,11.97
2017-11-25T05:31:15.462Z,12.90
2017-11-25T05:33:45.489Z,11.87
2017-11-25T05:36:14.843Z,14.20
2017-11-25T05:40:13.874Z,13.00
2017-11-25T05:42:43.101Z,12.33
2017-11-25T05:45:12.803Z,12.40
2017-11-25T05:47:41.931Z,11.30
2017-11-25T05:50:11.580Z,13.47
2017-11-25T05:52:41.283Z,12.20
2017-11-25T05:55:10.786Z,12.80
2017-11-25T05:57:40.847Z,11.87
2017-11-25T06:00:09.858Z,12.63
2017-11-25T06:02:39.030Z,12.00
2017-11-25T06:05:08.183Z,12.83
2017-11-25T06:07:37.899Z,12.60
2017-11-25T06:10:07.530Z,14.87
2017-11-25T06:12:37.988Z,11.93
2017-11-25T06:15:07.388Z,14.60
2017-11-25T06:17:36.507Z,13.27
2017-11-25T06:20:05.799Z,13.67
2017-11-25T06:22:35.085Z,11.80
2017-11-25T06:25:04.418Z,15.20
2017-11-25T06:27:34.071Z,13.33
2017-11-25T06:30:04.971Z,11.50
2017-11-25T06:32:34.153Z,11.03
2017-11-25T06:35:03.340Z,10.93
2017-11-25T06:37:35.211Z,11.20
2017-11-25T06:40:04.201Z,12.50
2017-11-25T06:42:33.218Z,13.00
2017-11-25T06:45:02.494Z,13.20
2017-11-25T06:47:31.964Z,11.80
2017-11-25T06:50:01.198Z,13.70
2017-11-25T06:52:30.996Z,13.70
2017-11-25T06:55:00.525Z,12.20
2017-11-25T06:57:29.556Z,14.87
2017-11-25T06:59:58.747Z,12.97
2017-11-25T07:02:27.787Z,13.57
2017-11-25T07:04:56.850Z,14.67
2017-11-25T07:07:26.831Z,14.13
2017-11-25T07:09:56.357Z,17.30
2017-11-25T07:12:25.901Z,13.93
2017-11-25T07:14:55.291Z,14.23
2017-11-25T07:17:25.215Z,14.60
2017-11-25T07:19:54.410Z,17.47
2017-11-25T07:22:23.948Z,17.90
2017-11-25T07:24:53.014Z,17.02
2017-11-25T07:27:22.428Z,13.97
2017-11-25T07:29:54.275Z,17.80
2017-11-25T07:32:23.713Z,15.03
2017-11-25T07:34:52.951Z,16.43
2017-11-25T07:37:22.922Z,17.07
2017-11-25T07:39:52.043Z,19.97
2017-11-25T07:42:21.562Z,18.17
2017-11-25T07:44:50.788Z,17.73
2017-11-25T07:47:19.848Z,20.63
2017-11-25T07:49:49.309Z,18.37
2017-11-25T07:52:18.772Z,22.20
2017-11-25T07:54:49.174Z,20.90
2017-11-25T07:57:20.155Z,22.30
2017-11-25T07:59:52.451Z,19.80
2017-11-25T08:02:25.300Z,22.77
2017-11-25T08:04:58.696Z,17.90
2017-11-25T08:07:27.851Z,17.40
2017-11-25T08:09:57.067Z,15.37
2017-11-25T08:12:26.216Z,11.70
2017-11-25T08:15:06.331Z,10.93
2017-11-25T08:17:35.645Z,12.00
2017-11-25T08:20:04.901Z,12.77
2017-11-25T08:22:35.579Z,12.93
2017-11-25T08:25:10.974Z,12.70
2017-11-25T08:27:40.663Z,12.80
2017-11-25T08:30:10.685Z,13.13
2017-11-25T08:32:40.241Z,15.03
2017-11-25T08:35:10.423Z,13.87
2017-11-25T08:37:39.688Z,14.17
2017-11-25T08:40:08.951Z,15.20
2017-11-25T08:42:39.192Z,14.10
2017-11-25T08:45:08.540Z,13.40
2017-11-25T08:47:38.569Z,13.80
2017-11-25T08:50:08.293Z,13.20
2017-11-25T08:52:37.600Z,13.97
2017-11-25T08:55:06.912Z,14.20
2017-11-25T08:57:36.676Z,13.80
2017-11-25T09:00:09.332Z,14.67
2017-11-25T09:02:38.551Z,13.10
2017-11-25T09:05:07.723Z,16.37
2017-11-25T09:07:37.408Z,15.80
2017-11-25T09:10:06.511Z,14.90
2017-11-25T09:12:35.737Z,12.27
2017-11-25T09:15:05.208Z,15.10
2017-11-25T09:17:34.829Z,12.60
2017-11-25T09:20:05.215Z,10.80
2017-11-25T09:22:34.411Z,12.80
2017-11-25T09:25:15.586Z,13.50
2017-11-25T09:27:44.655Z,12.20
2017-11-25T09:30:13.808Z,10.97
2017-11-25T09:32:42.912Z,9.67
2017-11-25T09:35:12.135Z,10.60
2017-11-25T09:37:42.064Z,9.70
2017-11-25T09:41:40.829Z,9.60
2017-11-25T09:44:10.762Z,8.77
2017-11-25T09:46:40.065Z,8.93
2017-11-25T09:49:09.262Z,19.63
2017-11-25T09:51:38.732Z,8.40
2017-11-25T09:54:08.102Z,10.83
2017-11-25T09:56:38.239Z,11.17
2017-11-25T09:59:08.134Z,10.13
2017-11-25T10:01:38.263Z,8.73
2017-11-25T10:04:09.169Z,8.70
2017-11-25T10:06:38.774Z,7.57
2017-11-25T10:09:08.168Z,7.93
2017-11-25T10:11:38.340Z,7.67
2017-11-25T10:14:08.113Z,8.50
2017-11-25T10:16:37.597Z,8.63
2017-11-25T10:19:07.049Z,9.40
2017-11-25T10:21:37.273Z,7.37
2017-11-25T10:24:07.391Z,6.03
2017-11-25T10:26:37.155Z,6.60
2017-11-25T10:29:06.107Z,7.27
2017-11-25T10:31:35.145Z,8.20
2017-11-25T10:34:04.920Z,6.60
2017-11-25T10:36:34.546Z,6.97
2017-11-25T10:39:06.161Z,6.80
2017-11-25T10:41:38.574Z,8.17
2017-11-25T10:44:08.551Z,5.83
2017-11-25T10:46:38.800Z,8.70
2017-11-25T10:49:08.394Z,6.97
2017-11-25T10:51:37.624Z,6.30
2017-11-25T10:54:07.572Z,7.97
2017-11-25T10:56:40.759Z,6.37
2017-11-25T10:59:11.757Z,6.70
2017-11-25T11:01:42.081Z,7.17
2017-11-25T11:04:12.935Z,6.53
2017-11-25T11:06:43.054Z,6.07
2017-11-25T11:09:16.328Z,8.53
2017-11-25T11:11:46.422Z,8.37
2017-11-25T11:14:17.180Z,10.97
2017-11-25T11:16:47.346Z,6.10
2017-11-25T11:19:18.863Z,7.80
2017-11-25T11:21:48.882Z,8.73
2017-11-25T11:24:18.889Z,7.83
2017-11-25T11:26:49.810Z,6.90
2017-11-25T11:29:19.147Z,7.17
2017-11-25T11:31:48.286Z,7.77
2017-11-25T11:34:17.268Z,7.10
2017-11-25T11:36:47.020Z,7.30
2017-11-25T11:43:31.751Z,7.60
2017-11-25T11:46:01.281Z,6.77
2017-11-25T11:48:30.794Z,7.63
2017-11-25T11:51:00.277Z,7.70
2017-11-25T11:53:29.494Z,6.47
2017-11-25T11:55:59.028Z,7.67
2017-11-25T11:58:28.730Z,9.60
2017-11-25T12:00:58.024Z,7.60
2017-11-25T12:03:27.776Z,8.90
2017-11-25T12:05:57.440Z,7.80
2017-11-25T12:08:28.282Z,9.97
2017-11-25T12:10:57.635Z,10.00
2017-11-25T12:13:26.714Z,8.57
2017-11-25T12:15:56.493Z,10.00
2017-11-25T12:18:25.752Z,11.17
2017-11-25T12:20:54.988Z,10.60
2017-11-25T12:23:24.839Z,10.50
2017-11-25T12:25:55.608Z,12.20
2017-11-25T12:28:25.343Z,12.60
2017-11-25T12:30:54.986Z,11.60
2017-11-25T12:33:24.853Z,15.70
2017-11-25T12:35:54.466Z,13.00
2017-11-25T12:38:23.848Z,13.73
2017-11-25T12:40:54.327Z,19.27
2017-11-25T12:43:23.399Z,13.37
2017-11-25T12:45:53.178Z,12.87
2017-11-25T12:48:23.307Z,10.30
2017-11-25T12:50:52.361Z,13.13
2017-11-25T12:53:22.766Z,12.27
2017-11-25T12:55:52.774Z,12.30
2017-11-25T12:58:22.609Z,10.20
2017-11-25T13:00:55.873Z,12.93
2017-11-25T13:03:25.712Z,12.27
2017-11-25T13:06:03.430Z,11.87
2017-11-25T13:08:37.296Z,10.43
2017-11-25T13:11:16.174Z,10.97
2017-11-25T13:14:01.694Z,12.70
2017-11-25T13:16:32.540Z,9.53
2017-11-25T13:19:02.431Z,12.87
2017-11-25T13:21:31.655Z,14.90
2017-11-25T13:24:01.204Z,12.03
2017-11-25T13:26:32.615Z,19.47
2017-11-25T13:29:02.666Z,20.50
2017-11-25T13:31:31.917Z,19.80
2017-11-25T13:34:01.172Z,10.67
2017-11-25T13:36:44.364Z,23.17
2017-11-25T13:39:14.823Z,16.17
2017-11-25T13:41:44.362Z,11.57
2017-11-25T13:44:13.616Z,19.97
2017-11-25T13:46:43.539Z,17.53
2017-11-25T13:49:13.494Z,14.90
2017-11-25T13:51:43.562Z,18.50
2017-11-25T13:54:16.209Z,13.57
2017-11-25T13:56:45.508Z,13.67
2017-11-25T13:59:14.702Z,15.13
2017-11-25T14:01:44.134Z,31.57
2017-11-25T14:04:18.129Z,13.23
2017-11-25T14:06:48.075Z,23.40
2017-11-25T14:09:17.835Z,29.50
2017-11-25T14:11:47.510Z,31.30
2017-11-25T14:14:24.049Z,18.27
2017-11-25T14:16:54.479Z,22.00
2017-11-25T14:19:38.791Z,49.57
2017-11-25T14:22:10.345Z,18.60
2017-11-25T14:24:43.188Z,17.57
2017-11-25T14:27:13.232Z,28.73
2017-11-25T14:30:02.072Z,21.47
2017-11-25T14:32:34.009Z,21.27
2017-11-25T14:35:06.124Z,18.10
2017-11-25T14:37:40.333Z,21.03
2017-11-25T14:40:18.257Z,39.03
2017-11-25T14:42:53.516Z,19.10
2017-11-25T14:45:25.055Z,26.90
2017-11-25T14:47:59.758Z,20.37
2017-11-25T14:50:29.776Z,39.17
2017-11-25T14:53:07.582Z,24.90
2017-11-25T14:55:39.294Z,18.73
2017-11-25T14:58:11.594Z,26.83
2017-11-25T15:00:45.558Z,28.77
2017-11-25T15:03:15.155Z,34.30
2017-11-25T15:05:47.380Z,22.00
2017-11-25T15:08:20.741Z,31.80
2017-11-25T15:11:04.083Z,24.70
2017-11-25T15:13:44.372Z,27.57
2017-11-25T15:16:28.149Z,35.07
2017-11-25T15:18:58.800Z,73.90
2017-11-25T15:21:28.580Z,100.13
2017-11-25T15:24:08.232Z,39.17
2017-11-25T15:26:43.570Z,46.67
2017-11-25T15:29:21.335Z,55.63
2017-11-25T15:31:57.295Z,32.17
2017-11-25T15:34:27.326Z,30.77
2017-11-25T15:36:57.402Z,25.83
2017-11-25T15:39:28.291Z,21.43
2017-11-25T15:41:58.973Z,20.43
2017-11-25T15:44:31.832Z,26.33
2017-11-25T15:47:05.139Z,32.93
2017-11-25T15:49:38.937Z,23.17
2017-11-25T15:52:09.585Z,26.30
2017-11-25T15:54:39.589Z,31.07
2017-11-25T15:57:10.267Z,25.63
2017-11-25T15:59:39.667Z,34.00
2017-11-25T16:02:09.041Z,35.30
2017-11-25T16:04:39.533Z,29.70
2017-11-25T16:07:09.561Z,23.90
2017-11-25T16:09:38.854Z,27.10
2017-11-25T16:12:08.215Z,20.87
2017-11-25T16:14:37.695Z,47.20
2017-11-25T16:17:07.921Z,25.00
2017-11-25T16:19:38.675Z,53.30
2017-11-25T16:22:10.937Z,48.20
2017-11-25T16:24:47.450Z,30.17
2017-11-25T16:27:26.355Z,35.73
2017-11-25T16:30:06.107Z,31.83
2017-11-25T16:32:37.645Z,80.70
2017-11-25T16:35:16.033Z,114.60
2017-11-25T16:37:49.441Z,34.53
2017-11-25T16:40:31.253Z,29.13
2017-11-25T16:43:09.962Z,32.60
2017-11-25T16:45:43.416Z,38.90
2017-11-25T16:48:20.073Z,22.27
2017-11-25T16:50:53.214Z,23.43
2017-11-25T16:53:28.802Z,19.97
2017-11-25T16:56:03.774Z,13.57
2017-11-25T16:58:33.816Z,15.17
2017-11-25T17:01:07.833Z,11.87
2017-11-25T17:03:41.362Z,21.15
2017-11-25T17:06:12.929Z,16.85
2017-11-25T17:08:44.117Z,22.10
2017-11-25T17:11:15.837Z,48.53
2017-11-25T17:13:47.603Z,56.60
2017-11-25T17:16:20.704Z,30.17
2017-11-25T17:18:52.957Z,34.10
2017-11-25T17:21:28.608Z,65.47
2017-11-25T17:24:01.842Z,35.50
2017-11-25T17:26:31.670Z,73.97
2017-11-25T17:29:01.427Z,31.57
2017-11-25T17:31:35.836Z,100.23
2017-11-25T17:34:11.008Z,34.07
2017-11-25T17:36:42.480Z,36.93
2017-11-25T17:39:13.795Z,32.03
2017-11-25T17:41:43.120Z,9.27
2017-11-25T17:44:23.202Z,59.83
2017-11-25T17:46:53.297Z,27.47
2017-11-25T17:49:30.645Z,42.10
2017-11-25T17:52:03.635Z,80.27
2017-11-25T17:54:34.968Z,58.70
2017-11-25T17:57:05.747Z,21.60
2017-11-25T17:59:35.406Z,25.33
2017-11-25T18:02:08.042Z,94.93
2017-11-25T18:04:38.518Z,21.50
2017-11-25T18:07:08.347Z,14.70
2017-11-25T18:09:40.610Z,9.40
2017-11-25T18:12:10.878Z,9.23
2017-11-25T18:14:43.686Z,26.00
2017-11-25T18:17:20.256Z,22.93
2017-11-25T18:19:52.769Z,47.17
2017-11-25T18:22:26.680Z,94.70
2017-11-25T18:24:57.431Z,88.17
2017-11-25T18:27:30.688Z,158.40
2017-11-25T18:30:01.654Z,59.77
2017-11-25T18:32:36.017Z,22.60
2017-11-25T18:35:06.404Z,28.27
2017-11-25T18:37:42.411Z,67.10
2017-11-25T18:40:20.457Z,131.90
2017-11-25T18:42:51.146Z,28.83
2017-11-25T18:45:20.929Z,50.23
2017-11-25T18:47:52.238Z,31.40
2017-11-25T18:50:27.398Z,96.83
2017-11-25T18:52:58.956Z,29.67
2017-11-25T18:55:31.684Z,71.93
2017-11-25T18:58:04.986Z,52.23
2017-11-25T19:00:37.047Z,45.00
2017-11-25T19:03:08.529Z,33.47
2017-11-25T19:05:41.061Z,78.90
2017-11-25T19:08:14.305Z,28.33
2017-11-25T19:10:45.344Z,53.83
2017-11-25T19:13:17.647Z,24.37
2017-11-25T19:15:48.327Z,27.47
2017-11-25T19:18:19.166Z,52.63
2017-11-25T19:20:48.650Z,40.13
2017-11-25T19:23:21.123Z,46.80
2017-11-25T19:25:52.301Z,40.93
2017-11-25T19:28:25.901Z,98.83
2017-11-25T19:31:01.376Z,84.60
2017-11-25T19:33:39.947Z,91.13
2017-11-25T19:36:13.914Z,54.23
2017-11-25T19:38:46.941Z,45.23
2017-11-25T19:41:18.973Z,46.60
2017-11-25T19:43:52.666Z,27.87
2017-11-25T19:46:23.410Z,33.53
2017-11-25T19:48:56.186Z,51.97
2017-11-25T19:51:28.272Z,51.77
2017-11-25T19:53:57.994Z,37.37
2017-11-25T19:56:32.614Z,46.47
2017-11-25T19:59:07.631Z,23.57
2017-11-25T20:01:44.506Z,36.43
2017-11-25T20:04:17.985Z,142.40
2017-11-25T20:06:54.143Z,102.40
2017-11-25T20:09:31.707Z,189.30
2017-11-25T20:12:02.586Z,154.50
2017-11-25T20:14:36.851Z,128.47
2017-11-25T20:17:11.065Z,80.87
2017-11-25T20:19:51.074Z,71.80
2017-11-25T20:22:25.805Z,112.90
2017-11-25T20:25:01.431Z,142.48
2017-11-25T20:27:31.979Z,85.00
2017-11-25T20:30:05.391Z,34.80
2017-11-25T20:32:37.070Z,25.80
2017-11-25T20:35:14.692Z,40.20
2017-11-25T20:37:49.933Z,31.47
2017-11-25T20:40:25.379Z,62.17
2017-11-25T20:42:59.020Z,27.43
2017-11-25T20:45:32.088Z,20.23
2017-11-25T20:48:11.559Z,51.47
2017-11-25T20:50:42.792Z,65.93
2017-11-25T20:53:15.559Z,105.73
2017-11-25T20:55:45.360Z,40.73
2017-11-25T20:58:17.119Z,75.23
2017-11-25T21:00:57.050Z,22.73
2017-11-25T21:03:36.614Z,51.70
2017-11-25T21:06:19.870Z,49.27
2017-11-25T21:08:56.655Z,24.03
2017-11-25T21:11:27.277Z,67.43
2017-11-25T21:13:57.262Z,24.73
2017-11-25T21:16:26.742Z,42.93
2017-11-25T21:18:56.243Z,86.10
2017-11-25T21:21:25.440Z,35.20
2017-11-25T21:23:55.524Z,35.13
2017-11-25T21:26:29.005Z,41.23
2017-11-25T21:28:58.828Z,34.10
2017-11-25T21:31:28.335Z,42.37
2017-11-25T21:34:01.873Z,110.67
2017-11-25T21:36:32.377Z,32.50
2017-11-25T21:39:03.934Z,35.07
2017-11-25T21:41:33.995Z,65.60
2017-11-25T21:44:03.196Z,91.67
2017-11-25T21:46:33.464Z,129.70
2017-11-25T21:49:02.690Z,87.63
2017-11-25T21:51:33.341Z,55.77
2017-11-25T21:54:04.182Z,26.77
2017-11-25T21:56:39.523Z,27.57
2017-11-25T21:59:21.300Z,16.97
2017-11-25T22:01:52.970Z,56.03
2017-11-25T22:04:23.279Z,65.03
2017-11-25T22:06:59.680Z,117.53
2017-11-25T22:09:30.368Z,99.30
2017-11-25T22:12:04.387Z,94.80
2017-11-25T22:14:34.735Z,187.83
2017-11-25T22:17:06.128Z,83.10
2017-11-25T22:19:39.108Z,38.33
2017-11-25T22:22:15.893Z,98.67
2017-11-25T22:24:47.093Z,92.47
2017-11-25T22:27:23.550Z,104.37
2017-11-25T22:30:02.560Z,37.03
2017-11-25T22:32:39.207Z,59.10
2017-11-25T22:35:15.980Z,44.90
2017-11-25T22:37:45.813Z,67.13
2017-11-25T22:40:16.353Z,49.73
2017-11-25T22:42:47.917Z,75.13
2017-11-25T22:45:19.404Z,95.33
2017-11-25T22:47:54.136Z,109.30
2017-11-25T22:50:35.857Z,65.50
2017-11-25T22:53:21.948Z,31.83
2017-11-25T22:55:51.571Z,38.03
2017-11-25T22:58:21.616Z,44.33
2017-11-25T23:00:55.417Z,29.00
2017-11-25T23:03:36.367Z,23.83
2017-11-25T23:06:19.171Z,74.30
2017-11-25T23:08:50.589Z,61.90
2017-11-25T23:11:20.666Z,51.03
2017-11-25T23:13:50.083Z,36.93
2017-11-25T23:16:25.274Z,64.97
2017-11-25T23:18:54.882Z,73.03
2017-11-25T23:21:24.420Z,73.93
2017-11-25T23:23:59.311Z,23.43
2017-11-25T23:26:30.762Z,47.77
2017-11-25T23:29:05.471Z,64.70
2017-11-25T23:31:44.302Z,49.03
2017-11-25T23:34:17.898Z,25.80
2017-11-25T23:36:59.796Z,44.17
2017-11-25T23:39:39.937Z,37.70
2017-11-25T23:42:15.625Z,77.07
2017-11-25T23:44:46.655Z,50.80
2017-11-25T23:47:25.391Z,42.60
2017-11-25T23:50:02.400Z,79.83
2017-11-25T23:52:40.531Z,46.33
2017-11-25T23:55:12.206Z,125.37
2017-11-25T23:57:42.567Z,49.97
